Time;durP1;ratioP1;P1;durP2;ratioP2;P2;SDS_P1;SDS_P2;PMS_P1;PMS_P2;Temp;Humidity;BMP_temperature;BMP_pressure;BME280_temperature;BME280_humidity;BME280_pressure;Samples;Min_cycle;Max_cycle;Signal;HPM_P1;HPM_P2
2024/03/13 00:00:57;;;;;;;2.33;1.77;;;21.10;54.90;;;;;;5053604;28;20759;-72
2024/03/13 00:03:23;;;;;;;2.20;1.80;;;21.10;55.00;;;;;;5053112;28;20575;-73
2024/03/13 00:05:50;;;;;;;2.33;1.80;;;21.20;55.10;;;;;;5053478;28;20177;-73
2024/03/13 00:08:16;;;;;;;1.77;1.67;;;21.10;55.00;;;;;;5053213;28;20171;-73
2024/03/13 00:10:42;;;;;;;3.10;1.90;;;21.10;55.00;;;;;;5053089;28;20416;-73
2024/03/13 00:13:07;;;;;;;1.97;1.50;;;21.10;55.00;;;;;;5053047;28;20213;-74
2024/03/13 00:15:33;;;;;;;2.13;1.77;;;21.10;55.00;;;;;;5052937;28;20201;-73
2024/03/13 00:18:01;;;;;;;2.30;1.80;;;21.10;55.00;;;;;;5053332;28;20232;-73
2024/03/13 00:20:30;;;;;;;1.73;1.63;;;21.10;55.00;;;;;;5053453;28;20174;-74
2024/03/13 00:22:56;;;;;;;2.93;1.90;;;21.10;55.00;;;;;;5053002;28;20471;-74
2024/03/13 00:25:22;;;;;;;3.97;1.83;;;21.10;55.00;;;;;;5053006;28;21012;-73
2024/03/13 00:27:48;;;;;;;2.30;1.80;;;21.10;55.00;;;;;;5052998;28;20496;-71
2024/03/13 00:30:15;;;;;;;2.40;2.10;;;21.10;55.00;;;;;;5053157;28;20177;-73
2024/03/13 00:32:42;;;;;;;2.07;1.87;;;21.10;55.00;;;;;;5054140;28;20182;-72
2024/03/13 00:35:08;;;;;;;2.27;2.07;;;21.10;55.00;;;;;;5053382;28;20461;-73
2024/03/13 00:37:34;;;;;;;1.80;1.60;;;21.10;55.50;;;;;;5051160;28;20475;-72
2024/03/13 00:40:00;;;;;;;2.03;1.60;;;21.10;55.00;;;;;;5052717;28;20513;-73
2024/03/13 00:42:26;;;;;;;2.30;1.97;;;21.10;55.00;;;;;;5052580;28;20441;-73
2024/03/13 00:44:53;;;;;;;1.90;1.57;;;21.10;55.10;;;;;;5052441;28;20984;-73
2024/03/13 00:47:21;;;;;;;2.30;2.10;;;21.10;55.00;;;;;;5052126;28;20202;-73
2024/03/13 00:49:46;;;;;;;1.77;1.67;;;21.10;55.00;;;;;;5052540;28;20417;-72
2024/03/13 00:52:12;;;;;;;1.73;1.60;;;21.10;55.10;;;;;;5052391;28;20778;-73
2024/03/13 00:54:44;;;;;;;2.40;1.80;;;21.10;55.00;;;;;;5052353;28;20198;-72
2024/03/13 00:57:11;;;;;;;2.07;1.50;;;21.10;55.00;;;;;;5052380;28;20689;-71
2024/03/13 00:59:36;;;;;;;2.17;1.97;;;21.10;55.00;;;;;;5052409;28;20472;-73
2024/03/13 01:02:03;;;;;;;2.03;1.60;;;21.10;55.00;;;;;;5047642;28;20465;-73
2024/03/13 01:04:29;;;;;;;2.33;1.90;;;21.10;55.00;;;;;;5051921;28;20249;-73
2024/03/13 01:06:55;;;;;;;2.17;1.70;;;21.10;55.00;;;;;;5051970;28;20857;-72
2024/03/13 01:09:24;;;;;;;1.70;1.50;;;21.10;55.00;;;;;;5050668;28;20671;-73
2024/03/13 01:11:53;;;;;;;2.00;1.80;;;21.10;55.00;;;;;;5052028;28;20773;-72
2024/03/13 01:14:21;;;;;;;2.27;2.07;;;21.10;55.10;;;;;;5051826;28;20487;-73
2024/03/13 01:16:53;;;;;;;2.63;2.37;;;21.10;55.10;;;;;;5049956;28;20444;-73
2024/03/13 01:19:20;;;;;;;2.50;1.97;;;21.10;55.00;;;;;;5051781;28;20483;-73
2024/03/13 01:21:51;;;;;;;2.30;1.60;;;21.10;55.10;;;;;;5051778;28;20491;-73
2024/03/13 01:24:17;;;;;;;2.23;2.00;;;21.10;55.10;;;;;;5051644;28;20471;-72
2024/03/13 01:26:43;;;;;;;2.17;1.70;;;21.00;55.00;;;;;;5051834;28;20402;-72
2024/03/13 01:29:09;;;;;;;2.13;1.57;;;21.10;55.10;;;;;;5051656;28;20421;-73
2024/03/13 01:31:35;;;;;;;2.43;1.80;;;21.10;55.10;;;;;;5051597;28;20175;-72
2024/03/13 01:34:03;;;;;;;1.90;1.70;;;21.10;55.10;;;;;;5051517;28;20194;-73
2024/03/13 01:39:12;;;;;;;2.10;1.60;;;21.00;55.00;;;;;;5051836;28;20958;-73
2024/03/13 01:55:36;;;;;;;1.53;1.43;;;21.00;55.00;;;;;;5051247;28;20435;-72
2024/03/13 02:03:16;;;;;;;2.47;1.70;;;21.00;55.10;;;;;;5051260;28;20541;-72
2024/03/13 02:05:43;;;;;;;1.93;1.57;;;21.00;55.10;;;;;;5049792;28;21099;-72
2024/03/13 02:08:13;;;;;;;1.97;1.77;;;21.00;55.00;;;;;;5051013;28;20656;-73
2024/03/13 02:10:39;;;;;;;1.80;1.57;;;21.00;55.10;;;;;;5050956;28;20443;-73
2024/03/13 02:13:07;;;;;;;3.00;1.87;;;21.00;55.00;;;;;;5050883;28;20471;-73
2024/03/13 02:15:33;;;;;;;2.40;1.70;;;21.00;55.10;;;;;;5050813;28;20950;-71
2024/03/13 02:18:00;;;;;;;1.83;1.63;;;21.00;55.00;;;;;;5051023;28;20905;-73
2024/03/13 02:20:27;;;;;;;1.87;1.40;;;21.00;55.60;;;;;;5051070;28;20409;-71
2024/03/13 02:23:04;;;;;;;1.30;1.20;;;21.00;55.10;;;;;;5050642;28;20792;-73
2024/03/13 02:25:34;;;;;;;1.90;1.47;;;21.00;55.00;;;;;;5050690;28;20432;-73
2024/03/13 02:28:00;;;;;;;1.80;1.60;;;21.00;55.00;;;;;;5050892;28;20446;-73
2024/03/13 02:30:26;;;;;;;2.13;1.67;;;21.00;55.10;;;;;;5050562;28;20418;-73
2024/03/13 02:32:52;;;;;;;2.40;1.50;;;21.00;55.00;;;;;;5049345;28;20438;-73
2024/03/13 02:35:18;;;;;;;1.80;1.50;;;21.00;55.00;;;;;;5050650;28;20433;-71
2024/03/13 02:37:44;;;;;;;1.97;1.60;;;21.00;55.00;;;;;;5050536;28;20456;-73
2024/03/13 02:40:13;;;;;;;2.00;1.80;;;21.00;55.00;;;;;;5050465;28;20540;-73
2024/03/13 02:42:39;;;;;;;1.97;1.50;;;21.00;55.00;;;;;;5048981;28;20214;-73
2024/03/13 02:45:05;;;;;;;2.00;1.60;;;21.00;55.10;;;;;;5050221;28;20531;-73
2024/03/13 02:47:31;;;;;;;2.50;1.90;;;21.00;55.00;;;;;;5049063;28;20175;-73
2024/03/13 02:49:57;;;;;;;1.60;1.50;;;21.00;55.00;;;;;;5050332;28;20555;-73
2024/03/13 02:52:26;;;;;;;1.83;1.60;;;21.00;55.00;;;;;;5050285;28;20171;-73
2024/03/13 02:54:51;;;;;;;1.63;1.53;;;21.00;55.10;;;;;;5049227;28;20349;-73
2024/03/13 02:57:18;;;;;;;1.90;1.43;;;21.00;55.10;;;;;;5050253;28;20909;-74
2024/03/13 02:59:44;;;;;;;2.10;1.90;;;21.00;55.00;;;;;;5050291;28;20365;-73
2024/03/13 03:02:10;;;;;;;1.70;1.47;;;21.00;55.10;;;;;;5050143;28;20417;-73
2024/03/13 03:04:36;;;;;;;1.60;1.43;;;21.00;55.00;;;;;;5049969;28;20490;-72
2024/03/13 03:07:02;;;;;;;1.67;1.57;;;21.00;55.10;;;;;;5050056;28;20281;-72
2024/03/13 03:09:27;;;;;;;2.00;1.50;;;21.00;55.00;;;;;;5050036;28;20492;-73
2024/03/13 03:11:53;;;;;;;1.60;1.40;;;21.00;55.00;;;;;;5050112;28;20882;-73
2024/03/13 03:14:20;;;;;;;1.70;1.40;;;21.00;55.10;;;;;;5049919;28;20206;-73
2024/03/13 03:16:46;;;;;;;2.53;1.70;;;21.00;55.00;;;;;;5050045;28;20186;-73
2024/03/13 03:19:11;;;;;;;2.23;1.70;;;21.00;55.00;;;;;;5049843;28;20445;-71
2024/03/13 03:21:37;;;;;;;1.77;1.60;;;21.00;55.00;;;;;;5050051;28;20426;-72
2024/03/13 03:24:04;;;;;;;1.97;1.80;;;21.00;55.00;;;;;;5049795;28;20298;-73
2024/03/13 03:26:30;;;;;;;1.83;1.63;;;21.00;55.00;;;;;;5048553;28;20429;-73
2024/03/13 03:28:58;;;;;;;1.73;1.60;;;21.00;55.10;;;;;;5049816;28;20925;-73
2024/03/13 03:31:24;;;;;;;2.20;1.70;;;21.00;55.00;;;;;;5049893;28;20179;-73
2024/03/13 03:33:51;;;;;;;1.90;1.63;;;21.00;55.10;;;;;;5049753;28;20829;-73
2024/03/13 03:36:17;;;;;;;1.70;1.50;;;21.00;55.00;;;;;;5049864;28;20178;-73
2024/03/13 03:38:43;;;;;;;1.53;1.23;;;20.90;55.00;;;;;;5049832;28;20428;-73
2024/03/13 03:41:08;;;;;;;1.80;1.43;;;21.00;55.10;;;;;;5049792;28;20579;-73
2024/03/13 03:43:34;;;;;;;1.53;1.43;;;21.00;55.10;;;;;;5049670;28;20301;-73
2024/03/13 03:45:59;;;;;;;1.63;1.50;;;20.90;55.00;;;;;;5049719;28;20190;-73
2024/03/13 03:48:25;;;;;;;1.83;1.50;;;20.90;55.00;;;;;;5049740;28;20207;-72
2024/03/13 03:50:50;;;;;;;1.97;1.77;;;21.00;55.10;;;;;;5049805;28;20568;-73
2024/03/13 03:53:16;;;;;;;1.83;1.43;;;21.00;55.10;;;;;;5049623;28;20187;-73
2024/03/13 03:55:43;;;;;;;1.70;1.40;;;20.90;55.00;;;;;;5049647;28;20171;-72
2024/03/13 03:58:09;;;;;;;1.40;1.30;;;20.90;55.00;;;;;;5049708;28;20266;-72
2024/03/13 04:00:35;;;;;;;1.50;1.33;;;21.00;55.10;;;;;;5049599;28;20496;-73
2024/03/13 04:03:01;;;;;;;2.00;1.50;;;21.00;55.10;;;;;;5049809;28;20714;-73
2024/03/13 04:05:28;;;;;;;1.80;1.43;;;20.90;55.00;;;;;;5049810;28;20502;-73
2024/03/13 04:07:54;;;;;;;2.43;1.70;;;20.90;55.10;;;;;;5049506;28;20416;-73
2024/03/13 04:10:20;;;;;;;1.80;1.60;;;21.00;55.10;;;;;;5049753;28;20417;-73
2024/03/13 04:12:49;;;;;;;1.40;1.30;;;20.90;55.00;;;;;;5050937;28;20203;-73
2024/03/13 04:15:15;;;;;;;1.80;1.60;;;20.90;55.60;;;;;;5043270;28;20333;-73
2024/03/13 04:17:41;;;;;;;1.43;1.27;;;20.90;55.00;;;;;;5036126;28;20436;-73
2024/03/13 04:20:18;;;;;;;1.87;1.70;;;20.90;55.00;;;;;;5040300;28;20936;-73
2024/03/13 04:22:45;;;;;;;2.20;1.47;;;20.90;55.00;;;;;;5032864;28;20548;-73
2024/03/13 04:25:10;;;;;;;2.27;1.50;;;20.90;55.00;;;;;;5033003;28;20466;-72
2024/03/13 04:27:37;;;;;;;1.63;1.53;;;20.90;55.00;;;;;;5033094;28;21290;-72
2024/03/13 04:30:03;;;;;;;2.23;1.40;;;20.90;55.00;;;;;;5033000;28;20441;-73
2024/03/13 04:32:28;;;;;;;1.90;1.70;;;20.90;55.00;;;;;;5035847;28;20422;-73
2024/03/13 04:34:54;;;;;;;1.97;1.40;;;20.90;55.00;;;;;;5032816;28;20467;-73
2024/03/13 04:37:23;;;;;;;2.03;1.70;;;20.90;55.00;;;;;;5050524;28;20273;-73
2024/03/13 04:39:48;;;;;;;1.40;1.27;;;21.00;55.10;;;;;;5052794;28;20969;-73
2024/03/13 04:42:14;;;;;;;1.67;1.57;;;20.90;55.10;;;;;;5045797;28;20453;-73
2024/03/13 04:44:39;;;;;;;2.33;1.90;;;20.90;55.00;;;;;;5032580;28;20217;-73
2024/03/13 04:47:07;;;;;;;2.27;1.63;;;20.90;55.60;;;;;;5032992;28;20183;-73
2024/03/13 04:49:32;;;;;;;1.90;1.70;;;20.90;55.10;;;;;;5032743;28;20549;-73
2024/03/13 04:51:59;;;;;;;1.57;1.40;;;20.90;55.00;;;;;;5032575;28;20449;-73
2024/03/13 04:54:24;;;;;;;1.60;1.33;;;20.90;55.10;;;;;;5032580;28;20191;-73
2024/03/13 04:56:50;;;;;;;2.27;1.77;;;20.90;55.10;;;;;;5032515;28;20504;-73
2024/03/13 04:59:15;;;;;;;1.80;1.50;;;20.90;55.10;;;;;;5032461;28;20184;-73
2024/03/13 05:01:41;;;;;;;1.70;1.50;;;20.90;55.60;;;;;;5032391;28;20180;-73
2024/03/13 05:04:07;;;;;;;1.97;1.40;;;20.90;55.10;;;;;;5032184;28;20721;-73
2024/03/13 05:06:32;;;;;;;2.10;1.60;;;20.90;55.10;;;;;;5032309;28;20561;-73
2024/03/13 05:08:58;;;;;;;1.87;1.57;;;20.90;55.10;;;;;;5032621;28;20199;-73
2024/03/13 05:11:23;;;;;;;2.10;1.77;;;20.90;55.10;;;;;;5032246;28;20175;-73
2024/03/13 05:13:49;;;;;;;1.60;1.30;;;20.90;55.10;;;;;;5032168;28;20200;-72
2024/03/13 05:16:15;;;;;;;2.13;1.67;;;21.00;55.20;;;;;;5032155;28;20182;-72
2024/03/13 05:18:42;;;;;;;1.70;1.43;;;21.00;55.20;;;;;;5032059;28;20183;-72
2024/03/13 05:21:08;;;;;;;1.80;1.60;;;20.90;55.10;;;;;;5032000;28;20414;-73
2024/03/13 05:23:34;;;;;;;1.93;1.40;;;21.00;55.20;;;;;;5031879;28;20501;-73
2024/03/13 05:25:59;;;;;;;1.30;1.20;;;21.00;55.20;;;;;;5032093;28;20788;-73
2024/03/13 05:28:25;;;;;;;1.60;1.50;;;21.00;55.10;;;;;;5032014;28;20179;-73
2024/03/13 05:30:51;;;;;;;2.13;1.90;;;21.00;55.10;;;;;;5051576;28;20564;-73
2024/03/13 05:33:16;;;;;;;1.87;1.27;;;21.00;55.10;;;;;;5050569;28;20543;-73
2024/03/13 05:35:42;;;;;;;1.30;1.20;;;21.00;55.10;;;;;;5051745;28;20174;-73
2024/03/13 05:38:08;;;;;;;2.40;1.80;;;21.00;55.10;;;;;;5051620;28;20203;-73
2024/03/13 05:40:34;;;;;;;2.53;2.00;;;21.00;55.10;;;;;;5051589;28;20217;-73
2024/03/13 05:42:59;;;;;;;2.10;1.63;;;21.00;55.00;;;;;;5051426;28;20802;-73
2024/03/13 05:45:25;;;;;;;1.60;1.40;;;21.00;55.00;;;;;;5051441;28;20202;-73
2024/03/13 05:47:52;;;;;;;1.90;1.70;;;21.00;55.00;;;;;;5050282;28;20591;-73
2024/03/13 05:50:18;;;;;;;1.77;1.67;;;21.00;55.00;;;;;;5051541;28;20225;-73
2024/03/13 05:52:46;;;;;;;1.70;1.60;;;21.00;55.00;;;;;;5051371;28;20445;-74
2024/03/13 05:55:16;;;;;;;2.63;1.60;;;21.00;55.10;;;;;;5051331;28;20643;-72
2024/03/13 05:57:41;;;;;;;1.70;1.60;;;21.00;55.00;;;;;;5051316;28;20471;-73
2024/03/13 06:00:09;;;;;;;1.90;1.70;;;21.00;55.10;;;;;;5051604;28;20413;-73
2024/03/13 06:02:35;;;;;;;1.73;1.50;;;21.00;55.00;;;;;;5051219;28;20249;-72
2024/03/13 06:05:11;;;;;;;2.63;2.03;;;21.00;55.10;;;;;;5049650;28;20465;-72
2024/03/13 06:07:37;;;;;;;3.00;2.00;;;21.00;55.00;;;;;;5051155;28;20816;-71
2024/03/13 06:10:05;;;;;;;2.67;2.47;;;21.00;55.00;;;;;;5051117;28;20438;-72
2024/03/13 06:12:31;;;;;;;2.10;1.70;;;21.00;55.00;;;;;;5051284;28;20420;-72
2024/03/13 06:14:56;;;;;;;2.30;2.10;;;21.00;55.10;;;;;;5050810;28;20516;-72
2024/03/13 06:17:22;;;;;;;2.47;1.97;;;21.00;55.10;;;;;;5050953;28;20999;-72
2024/03/13 06:19:48;;;;;;;1.70;1.60;;;21.00;55.10;;;;;;5032939;28;20573;-71
2024/03/13 06:22:14;;;;;;;2.07;1.70;;;21.00;55.10;;;;;;5050849;28;20638;-72
2024/03/13 06:24:40;;;;;;;2.13;1.73;;;21.00;55.10;;;;;;5050666;28;20214;-72
2024/03/13 06:27:09;;;;;;;2.27;1.93;;;21.00;55.10;;;;;;5050671;28;20440;-71
2024/03/13 06:32:20;;;;;;;2.03;1.87;;;21.00;55.10;;;;;;5050681;28;20397;-73
2024/03/13 06:34:45;;;;;;;2.03;1.57;;;21.10;55.20;;;;;;5050586;28;20442;-72
2024/03/13 06:37:11;;;;;;;2.10;1.70;;;21.00;55.70;;;;;;5050580;28;20654;-72
2024/03/13 06:39:36;;;;;;;2.07;1.77;;;21.10;55.10;;;;;;5050435;28;20686;-72
2024/03/13 06:42:02;;;;;;;2.20;1.50;;;21.10;55.10;;;;;;5050609;28;20175;-72
2024/03/13 06:44:28;;;;;;;2.03;1.70;;;21.10;55.10;;;;;;5050045;28;20233;-72
2024/03/13 06:46:54;;;;;;;1.80;1.50;;;21.10;55.10;;;;;;5050399;28;20178;-73
2024/03/13 06:49:19;;;;;;;2.07;1.33;;;21.10;55.10;;;;;;5050819;28;20175;-72
2024/03/13 06:51:45;;;;;;;2.80;1.90;;;21.10;55.10;;;;;;5048955;28;20228;-72
2024/03/13 06:54:10;;;;;;;2.47;1.70;;;21.10;55.10;;;;;;5050271;28;20215;-71
2024/03/13 06:56:36;;;;;;;1.80;1.60;;;21.10;55.10;;;;;;5050250;28;20190;-73
2024/03/13 06:59:02;;;;;;;1.97;1.50;;;21.20;55.20;;;;;;5050147;28;20173;-72
2024/03/13 07:01:29;;;;;;;2.43;1.50;;;21.20;55.10;;;;;;5050110;28;20417;-73
2024/03/13 07:03:57;;;;;;;2.27;1.90;;;21.20;55.10;;;;;;5049960;28;20206;-72
2024/03/13 07:06:23;;;;;;;2.20;1.90;;;21.20;55.20;;;;;;5048853;28;20412;-72
2024/03/13 07:08:48;;;;;;;2.07;1.87;;;21.20;55.10;;;;;;5050088;28;20748;-73
2024/03/13 07:11:14;;;;;;;1.70;1.60;;;21.20;55.10;;;;;;5050038;28;20186;-72
2024/03/13 07:13:39;;;;;;;2.40;1.60;;;21.20;55.10;;;;;;5049967;28;20201;-72
2024/03/13 07:16:05;;;;;;;1.77;1.60;;;21.30;55.20;;;;;;5050012;28;20175;-72
2024/03/13 07:18:32;;;;;;;3.37;2.30;;;21.20;55.10;;;;;;5049855;28;20189;-72
2024/03/13 07:20:58;;;;;;;2.83;2.00;;;21.30;55.10;;;;;;5049876;28;20424;-73
2024/03/13 07:23:26;;;;;;;3.50;1.50;;;21.30;55.10;;;;;;5049766;28;20564;-72
2024/03/13 07:25:55;;;;;;;2.20;1.90;;;21.30;55.10;;;;;;5049895;28;20408;-73
2024/03/13 07:28:21;;;;;;;2.10;1.70;;;21.30;55.10;;;;;;5049968;28;20434;-73
2024/03/13 07:30:50;;;;;;;2.83;1.70;;;21.30;55.10;;;;;;5050274;28;20440;-71
2024/03/13 07:33:15;;;;;;;1.83;1.53;;;21.30;55.10;;;;;;5049885;28;20255;-72
2024/03/13 07:35:41;;;;;;;3.63;1.80;;;21.30;55.10;;;;;;5049828;28;20861;-71
2024/03/13 07:38:10;;;;;;;1.67;1.43;;;21.30;55.10;;;;;;5049884;28;20163;-71
2024/03/13 07:40:39;;;;;;;2.63;1.77;;;21.30;55.10;;;;;;5049822;28;20445;-72
2024/03/13 07:43:08;;;;;;;1.97;1.60;;;21.30;55.10;;;;;;5049883;28;20417;-73
2024/03/13 07:45:36;;;;;;;1.70;1.60;;;21.30;55.10;;;;;;5049674;28;20429;-72
2024/03/13 07:48:03;;;;;;;1.57;1.40;;;21.30;55.10;;;;;;5050060;28;20964;-73
2024/03/13 07:50:28;;;;;;;2.30;1.30;;;21.30;55.10;;;;;;5049668;28;20405;-72
2024/03/13 07:52:54;;;;;;;1.90;1.70;;;21.30;55.10;;;;;;5049840;28;20944;-71
2024/03/13 07:55:21;;;;;;;1.90;1.70;;;21.30;55.10;;;;;;5049894;28;20202;-72
2024/03/13 07:57:47;;;;;;;1.70;1.50;;;21.30;55.10;;;;;;5053153;28;20175;-71
2024/03/13 08:00:16;;;;;;;1.87;1.40;;;21.30;55.10;;;;;;5053371;28;20413;-72
2024/03/13 08:02:45;;;;;;;2.67;1.63;;;21.30;55.10;;;;;;5053448;28;20175;-71
2024/03/13 08:05:10;;;;;;;1.87;1.40;;;21.30;55.10;;;;;;5053239;28;20465;-73
2024/03/13 08:07:37;;;;;;;1.53;1.30;;;21.30;55.10;;;;;;5053314;28;20409;-70
2024/03/13 08:10:03;;;;;;;2.13;1.93;;;21.30;55.10;;;;;;5053544;28;20257;-71
2024/03/13 08:12:29;;;;;;;1.87;1.67;;;21.30;55.10;;;;;;5053200;28;20500;-73
2024/03/13 08:14:55;;;;;;;1.73;1.33;;;21.30;55.10;;;;;;5053150;28;20195;-70
2024/03/13 08:17:21;;;;;;;2.43;1.53;;;21.30;55.10;;;;;;5053377;28;20414;-73
2024/03/13 08:19:46;;;;;;;2.10;1.70;;;21.40;55.20;;;;;;5051617;28;20709;-72
2024/03/13 08:22:12;;;;;;;1.80;1.63;;;21.40;55.20;;;;;;5053002;28;20183;-72
2024/03/13 08:24:38;;;;;;;2.03;1.43;;;21.40;55.20;;;;;;5052877;28;20252;-73
2024/03/13 08:27:04;;;;;;;2.93;2.00;;;21.40;55.10;;;;;;5053299;28;20207;-72
2024/03/13 08:29:30;;;;;;;1.80;1.50;;;21.40;55.20;;;;;;5051556;28;20541;-72
2024/03/13 08:31:56;;;;;;;1.70;1.43;;;21.40;55.20;;;;;;5053051;28;20406;-71
2024/03/13 08:34:22;;;;;;;2.03;1.40;;;21.40;55.10;;;;;;5052834;28;20298;-72
2024/03/13 08:36:49;;;;;;;3.33;1.77;;;21.40;55.20;;;;;;5052943;28;20179;-72
2024/03/13 08:39:16;;;;;;;2.33;1.50;;;21.40;55.20;;;;;;5052741;28;20504;-71
2024/03/13 08:41:43;;;;;;;1.83;1.63;;;21.40;55.20;;;;;;5052721;28;20505;-72
2024/03/13 08:44:09;;;;;;;2.00;1.60;;;21.40;55.20;;;;;;5052531;28;21074;-70
2024/03/13 08:46:37;;;;;;;2.17;1.33;;;21.40;55.20;;;;;;5052524;28;20405;-73
2024/03/13 08:49:05;;;;;;;1.80;1.53;;;21.40;55.30;;;;;;5051260;28;20417;-72
2024/03/13 08:51:31;;;;;;;2.30;1.60;;;21.40;55.80;;;;;;5052512;28;20171;-71
2024/03/13 08:53:56;;;;;;;1.43;1.30;;;21.40;55.20;;;;;;5052304;28;20444;-73
2024/03/13 08:56:22;;;;;;;2.97;1.53;;;21.40;55.30;;;;;;5052376;28;20178;-72
2024/03/13 08:58:49;;;;;;;2.17;1.50;;;21.40;55.30;;;;;;5052323;28;20190;-71
2024/03/13 09:01:15;;;;;;;2.17;1.73;;;21.40;55.30;;;;;;5052259;28;20175;-72
2024/03/13 09:03:40;;;;;;;2.50;1.63;;;21.40;55.30;;;;;;5051970;28;20511;-71
2024/03/13 09:06:14;;;;;;;1.90;1.57;;;21.40;55.30;;;;;;5052217;28;20210;-73
2024/03/13 09:08:39;;;;;;;2.50;1.77;;;21.40;55.30;;;;;;5052223;28;20634;-72
2024/03/13 09:11:05;;;;;;;2.23;1.47;;;21.40;55.30;;;;;;5052163;28;20402;-72
2024/03/13 09:13:30;;;;;;;1.63;1.53;;;21.40;55.30;;;;;;5051966;28;20704;-71
2024/03/13 09:16:01;;;;;;;1.60;1.40;;;21.40;55.30;;;;;;5052003;28;20167;-73
2024/03/13 09:18:26;;;;;;;1.67;1.40;;;21.40;55.30;;;;;;5050457;28;20194;-72
2024/03/13 09:20:52;;;;;;;2.20;1.70;;;21.40;55.30;;;;;;5052025;28;20400;-72
2024/03/13 09:23:18;;;;;;;2.00;1.80;;;21.40;55.30;;;;;;5051912;28;20237;-73
2024/03/13 09:25:43;;;;;;;1.77;1.30;;;21.40;55.30;;;;;;5051895;28;20538;-71
2024/03/13 09:28:11;;;;;;;2.23;1.53;;;21.40;55.30;;;;;;5051878;28;20940;-72
2024/03/13 09:30:37;;;;;;;2.60;1.83;;;21.40;55.30;;;;;;5051856;28;20168;-72
2024/03/13 09:33:08;;;;;;;1.60;1.47;;;21.40;55.30;;;;;;5051642;28;20418;-71
2024/03/13 09:35:34;;;;;;;2.63;1.80;;;21.40;55.30;;;;;;5051907;28;20195;-71
2024/03/13 09:37:59;;;;;;;2.00;1.60;;;21.40;55.40;;;;;;5051603;28;21060;-71
2024/03/13 09:40:25;;;;;;;1.90;1.70;;;21.40;55.30;;;;;;5051524;28;20504;-72
2024/03/13 09:42:53;;;;;;;2.17;1.97;;;21.40;55.30;;;;;;5051425;28;20183;-72
2024/03/13 09:45:22;;;;;;;2.43;2.00;;;21.40;55.30;;;;;;5051517;28;20788;-72
2024/03/13 09:47:50;;;;;;;1.77;1.50;;;21.40;55.30;;;;;;5051368;28;20467;-72
2024/03/13 09:50:17;;;;;;;1.93;1.47;;;21.40;55.30;;;;;;5051263;28;20409;-73
2024/03/13 09:52:44;;;;;;;1.80;1.33;;;21.40;55.30;;;;;;5051639;28;20406;-71
2024/03/13 09:55:13;;;;;;;2.00;1.80;;;21.40;55.30;;;;;;5049796;28;20976;-72
2024/03/13 09:57:39;;;;;;;2.87;1.80;;;21.40;55.30;;;;;;5051214;28;20417;-72
2024/03/13 10:00:18;;;;;;;1.80;1.30;;;21.40;55.30;;;;;;5051177;28;20452;-73
2024/03/13 10:02:51;;;;;;;2.20;1.70;;;21.40;55.30;;;;;;5051087;28;20404;-73
2024/03/13 10:05:19;;;;;;;1.60;1.50;;;21.40;55.30;;;;;;5051243;28;20471;-72
2024/03/13 10:07:50;;;;;;;2.30;1.57;;;21.40;55.40;;;;;;5051089;28;20409;-71
2024/03/13 10:10:26;;;;;;;1.40;1.27;;;21.30;55.30;;;;;;5050906;28;20899;-70
2024/03/13 10:12:54;;;;;;;2.13;1.70;;;21.40;55.40;;;;;;5049812;28;20421;-72
2024/03/13 10:15:21;;;;;;;2.50;1.77;;;21.30;55.30;;;;;;5050802;28;20437;-72
2024/03/13 10:18:01;;;;;;;2.13;1.33;;;21.40;55.40;;;;;;5051035;28;20497;-72
2024/03/13 10:20:35;;;;;;;2.00;1.80;;;21.40;55.30;;;;;;5050254;28;20405;-72
2024/03/13 10:23:02;;;;;;;2.23;1.50;;;21.30;55.30;;;;;;5050666;28;20429;-72
2024/03/13 10:25:30;;;;;;;1.83;1.60;;;21.30;55.30;;;;;;5050528;28;20473;-71
2024/03/13 10:27:56;;;;;;;1.93;1.60;;;21.30;55.30;;;;;;5050659;28;20493;-71
2024/03/13 10:30:25;;;;;;;3.07;1.80;;;21.30;55.30;;;;;;5050750;28;20406;-72
2024/03/13 10:32:51;;;;;;;1.47;1.37;;;21.40;55.40;;;;;;5050643;28;20406;-71
2024/03/13 10:35:17;;;;;;;1.60;1.30;;;21.30;55.30;;;;;;5050718;28;20499;-72
2024/03/13 10:37:43;;;;;;;2.10;1.47;;;21.40;55.40;;;;;;5050496;28;20409;-70
2024/03/13 10:40:09;;;;;;;3.00;1.80;;;21.40;55.40;;;;;;5050526;28;20194;-72
2024/03/13 10:42:35;;;;;;;2.20;1.40;;;21.40;55.40;;;;;;5050385;28;20421;-72
2024/03/13 10:45:01;;;;;;;3.27;1.80;;;21.40;55.40;;;;;;5050256;28;20457;-72
2024/03/13 10:47:27;;;;;;;2.33;1.67;;;21.40;55.40;;;;;;5050640;28;20224;-73
2024/03/13 10:49:56;;;;;;;3.40;1.87;;;21.40;55.40;;;;;;5050314;28;20166;-72
2024/03/13 10:52:22;;;;;;;3.77;1.63;;;21.40;55.40;;;;;;5050330;28;20406;-72
2024/03/13 10:54:48;;;;;;;1.93;1.73;;;21.40;55.40;;;;;;5050180;28;21266;-70
2024/03/13 10:57:18;;;;;;;2.17;1.60;;;21.40;55.40;;;;;;5050406;28;20186;-72
2024/03/13 10:59:48;;;;;;;1.70;1.30;;;21.40;55.40;;;;;;5050177;28;20420;-72
2024/03/13 11:02:14;;;;;;;1.73;1.43;;;21.40;55.40;;;;;;5050134;28;20445;-72
2024/03/13 11:04:41;;;;;;;1.97;1.20;;;21.40;55.40;;;;;;5050249;28;20885;-72
2024/03/13 11:07:16;;;;;;;1.63;1.37;;;21.40;55.40;;;;;;5050102;28;20839;-71
2024/03/13 11:09:42;;;;;;;1.80;1.30;;;21.40;55.40;;;;;;5048597;28;20405;-72
2024/03/13 11:12:19;;;;;;;1.40;1.30;;;21.40;55.40;;;;;;5049966;28;20466;-71
2024/03/13 11:14:51;;;;;;;2.33;1.53;;;21.40;55.40;;;;;;5050133;28;20195;-73
2024/03/13 11:17:20;;;;;;;2.30;1.60;;;21.40;55.40;;;;;;5049936;28;20420;-71
2024/03/13 11:20:04;;;;;;;1.60;1.40;;;21.40;55.50;;;;;;5049789;28;20593;-70
2024/03/13 11:22:32;;;;;;;1.50;1.30;;;21.40;55.50;;;;;;5049987;28;20408;-73
2024/03/13 11:25:00;;;;;;;1.60;1.50;;;21.30;55.40;;;;;;5049897;28;20498;-73
2024/03/13 11:27:27;;;;;;;1.63;1.50;;;21.30;55.40;;;;;;5050006;28;20503;-73
2024/03/13 11:29:54;;;;;;;2.27;1.50;;;21.30;55.30;;;;;;5050222;28;20810;-71
2024/03/13 11:32:23;;;;;;;1.87;1.47;;;21.30;55.40;;;;;;5052665;28;20908;-73
2024/03/13 11:34:49;;;;;;;1.67;1.30;;;21.30;55.40;;;;;;5053960;28;20438;-73
2024/03/13 11:37:16;;;;;;;1.53;1.43;;;21.30;55.40;;;;;;5053885;28;20416;-72
2024/03/13 11:39:44;;;;;;;2.43;1.37;;;21.30;55.40;;;;;;5053881;28;20532;-73
2024/03/13 11:42:14;;;;;;;1.50;1.20;;;21.30;55.40;;;;;;5052471;28;21177;-71
2024/03/13 11:44:49;;;;;;;3.20;1.70;;;21.40;55.50;;;;;;5052457;28;20491;-74
2024/03/13 11:47:16;;;;;;;1.57;1.37;;;21.30;55.40;;;;;;5053758;28;20401;-72
2024/03/13 11:49:42;;;;;;;3.80;1.90;;;21.30;55.40;;;;;;5053697;28;20405;-73
2024/03/13 11:52:15;;;;;;;3.87;2.17;;;21.30;55.40;;;;;;5053767;28;20409;-73
2024/03/13 11:54:43;;;;;;;2.67;1.63;;;21.30;55.40;;;;;;5053653;28;20437;-73
2024/03/13 11:57:14;;;;;;;3.57;2.07;;;21.40;55.50;;;;;;5053601;28;20931;-73
2024/03/13 11:59:41;;;;;;;4.00;2.60;;;21.30;55.40;;;;;;5053915;28;20479;-72
2024/03/13 12:02:30;;;;;;;13.10;4.50;;;21.30;55.40;;;;;;5053474;28;20416;-73
2024/03/13 12:05:04;;;;;;;12.10;4.23;;;21.40;55.50;;;;;;5053250;28;20888;-73
2024/03/13 12:07:36;;;;;;;13.50;4.80;;;21.30;55.50;;;;;;5053586;28;20401;-73
2024/03/13 12:10:02;;;;;;;9.80;4.30;;;21.30;55.50;;;;;;5053478;28;20401;-73
2024/03/13 12:12:28;;;;;;;15.50;4.43;;;21.30;56.10;;;;;;5053284;28;20928;-73
2024/03/13 12:14:55;;;;;;;8.93;4.70;;;21.30;55.50;;;;;;5053299;28;20437;-73
2024/03/13 12:17:20;;;;;;;16.83;5.53;;;21.30;55.50;;;;;;5053622;28;20179;-74
2024/03/13 12:19:47;;;;;;;10.80;6.00;;;21.30;55.50;;;;;;5053139;28;20518;-73
2024/03/13 12:22:13;;;;;;;10.60;5.27;;;21.30;55.50;;;;;;5053207;28;20278;-73
2024/03/13 12:24:39;;;;;;;13.73;5.50;;;21.40;55.60;;;;;;5053003;28;21138;-74
2024/03/13 12:27:07;;;;;;;12.63;6.07;;;21.30;55.60;;;;;;5053060;28;20543;-71
2024/03/13 12:29:34;;;;;;;17.23;6.90;;;21.30;55.50;;;;;;5053009;28;20406;-73
2024/03/13 12:32:03;;;;;;;14.67;6.03;;;21.40;55.60;;;;;;5052982;28;21079;-73
2024/03/13 12:34:29;;;;;;;18.17;6.40;;;21.40;55.60;;;;;;5053082;28;20432;-73
2024/03/13 12:36:56;;;;;;;17.50;6.93;;;21.40;55.60;;;;;;5052943;28;20420;-73
2024/03/13 12:39:22;;;;;;;20.97;7.03;;;21.30;55.60;;;;;;5052869;28;20662;-74
2024/03/13 12:41:48;;;;;;;27.93;9.93;;;21.40;55.60;;;;;;5052166;28;20501;-73
2024/03/13 12:44:15;;;;;;;23.53;9.67;;;21.40;55.70;;;;;;5052643;28;20526;-72
2024/03/13 12:46:41;;;;;;;33.47;14.80;;;21.30;55.60;;;;;;5051326;28;20444;-73
2024/03/13 12:49:12;;;;;;;37.20;16.23;;;21.40;55.60;;;;;;5052759;28;20825;-73
2024/03/13 12:51:38;;;;;;;33.80;14.53;;;21.30;55.60;;;;;;5052616;28;20916;-73
2024/03/13 12:54:07;;;;;;;38.13;16.03;;;21.40;55.70;;;;;;5052439;28;20516;-73
2024/03/13 12:56:33;;;;;;;41.33;19.47;;;21.40;55.70;;;;;;5052562;28;20908;-73
2024/03/13 12:58:59;;;;;;;41.50;18.10;;;21.40;55.70;;;;;;5052414;28;20417;-71
2024/03/13 13:01:26;;;;;;;37.37;19.33;;;21.30;55.70;;;;;;5052618;28;20200;-73
2024/03/13 13:03:53;;;;;;;47.47;23.17;;;21.40;55.70;;;;;;5052473;28;20888;-72
2024/03/13 13:06:19;;;;;;;48.27;22.23;;;21.40;55.70;;;;;;5052396;28;20406;-73
2024/03/13 13:08:50;;;;;;;45.97;23.37;;;21.30;55.60;;;;;;5052384;28;20404;-73